Time;durP1;ratioP1;P1;durP2;ratioP2;P2;SDS_P1;SDS_P2;PMS_P1;PMS_P2;Temp;Humidity;BMP_temperature;BMP_pressure;BME280_temperature;BME280_humidity;BME280_pressure;Samples;Min_cycle;Max_cycle;Signal;HPM_P1;HPM_P2
2021/12/14 00:02:13;;;;;;;8.85;6.55;;;;;;;8.24;89.25;102504.19;5030019;28;20060;-71
2021/12/14 00:04:39;;;;;;;9.00;6.88;;;;;;;8.20;88.93;102509.09;5032040;28;20029;-71
2021/12/14 00:07:08;;;;;;;12.23;7.63;;;;;;;8.21;89.17;102505.34;5031981;28;20029;-71
2021/12/14 00:09:36;;;;;;;11.20;7.15;;;;;;;8.24;89.80;102499.63;5024609;28;20029;-71
2021/12/14 00:12:32;;;;;;;10.25;7.18;;;;;;;8.24;89.76;102510.41;5012166;28;20388;-71
2021/12/14 00:15:07;;;;;;;8.27;6.82;;;;;;;8.22;89.83;102507.06;5012490;28;20105;-71
2021/12/14 00:17:41;;;;;;;8.38;6.60;;;;;;;8.19;89.19;102496.59;4994293;28;20084;-71
2021/12/14 00:20:12;;;;;;;8.70;7.20;;;;;;;8.20;89.99;102498.31;5023629;28;20029;-71
2021/12/14 00:24:06;;;;;;;9.02;6.80;;;;;;;8.20;89.33;102506.38;5031456;28;20041;-71
2021/12/14 00:25:40;;;;;;;10.02;6.68;;;;;;;8.17;89.86;102506.72;5033672;28;20029;-71
2021/12/14 00:28:13;;;;;;;9.32;7.10;;;;;;;8.14;89.76;102501.69;5035814;28;20350;-71
2021/12/14 00:30:42;;;;;;;8.85;6.93;;;;;;;8.17;89.87;102509.44;5034872;28;20033;-71
2021/12/14 00:33:12;;;;;;;10.88;6.75;;;;;;;8.15;89.85;102516.81;5035772;28;20029;-72
2021/12/14 00:35:40;;;;;;;8.57;6.53;;;;;;;8.12;90.12;102509.06;5035591;28;20030;-71
2021/12/14 00:38:06;;;;;;;9.13;7.18;;;;;;;8.12;90.24;102517.16;5035910;28;20029;-71
2021/12/14 00:40:37;;;;;;;7.68;6.53;;;;;;;8.05;90.74;102511.59;5020907;28;20029;-71
2021/12/14 00:43:04;;;;;;;7.97;6.65;;;;;;;8.08;89.97;102526.63;5015645;28;20030;-71
2021/12/14 00:45:32;;;;;;;9.50;6.95;;;;;;;8.07;90.69;102525.75;5014943;28;20053;-72
2021/12/14 00:47:58;;;;;;;8.25;6.90;;;;;;;8.06;90.38;102534.88;5015562;28;20045;-71
2021/12/14 00:50:27;;;;;;;9.45;6.88;;;;;;;8.01;90.52;102530.97;5028131;28;20033;-71
2021/12/14 00:52:52;;;;;;;10.20;7.00;;;;;;;8.02;90.91;102535.34;5035063;28;20542;-71
2021/12/14 00:55:27;;;;;;;9.90;6.78;;;;;;;8.06;91.05;102552.88;5035315;28;20094;-71
2021/12/14 00:57:53;;;;;;;6.93;6.20;;;;;;;8.07;90.04;102550.03;5035001;28;20041;-71
2021/12/14 01:00:23;;;;;;;8.10;6.90;;;;;;;8.06;90.30;102551.03;5034558;28;20046;-71
2021/12/14 01:02:49;;;;;;;9.82;7.30;;;;;;;8.08;90.67;102548.19;5015435;28;20073;-71
2021/12/14 01:05:20;;;;;;;7.90;6.82;;;;;;;8.08;89.75;102553.56;5035078;28;20057;-71
2021/12/14 01:07:45;;;;;;;8.55;7.13;;;;;;;8.09;90.53;102552.53;5017172;28;20040;-71
2021/12/14 01:10:30;;;;;;;10.10;7.18;;;;;;;8.09;90.77;102539.94;5024121;28;20025;-71
2021/12/14 01:13:01;;;;;;;10.15;6.90;;;;;;;8.07;90.13;102533.84;4997556;28;20037;-71
2021/12/14 01:15:51;;;;;;;10.57;7.60;;;;;;;8.08;89.97;102537.41;5014949;28;20519;-71
2021/12/14 01:18:47;;;;;;;8.63;7.10;;;;;;;8.05;90.54;102533.19;5015083;28;20045;-71
2021/12/14 01:24:20;;;;;;;10.40;7.60;;;;;;;8.05;90.59;102538.56;5034718;28;20041;-71
2021/12/14 01:26:46;;;;;;;8.80;7.18;;;;;;;8.01;90.21;102525.59;5034535;28;20032;-71
2021/12/14 01:29:13;;;;;;;11.63;7.63;;;;;;;8.01;90.24;102525.59;5033853;28;20026;-71
2021/12/14 01:31:41;;;;;;;9.80;7.45;;;;;;;7.97;90.37;102511.56;5034369;28;20037;-71
2021/12/14 01:34:11;;;;;;;10.93;7.60;;;;;;;8.01;90.34;102523.72;5016816;28;20071;-71
2021/12/14 01:36:42;;;;;;;7.70;6.88;;;;;;;7.97;90.22;102514.28;5033981;28;20040;-71
2021/12/14 01:39:24;;;;;;;9.13;7.13;;;;;;;7.98;90.02;102516.81;5033001;28;20040;-71
2021/12/14 01:42:05;;;;;;;8.43;6.35;;;;;;;7.94;90.77;102509.22;5014263;28;20069;-71
2021/12/14 01:44:35;;;;;;;;;;;;;;;8.04;90.03;102511.78;5014882;28;20060;-71
2021/12/14 01:47:07;;;;;;;7.38;6.20;;;;;;;7.93;89.69;102513.78;5017451;28;19960;-71
2021/12/14 01:49:33;;;;;;;7.50;6.28;;;;;;;7.92;90.00;102509.38;5016127;28;20045;-71
2021/12/14 01:52:05;;;;;;;8.05;6.30;;;;;;;7.93;89.79;102513.78;5016422;28;20037;-71
2021/12/14 01:54:37;;;;;;;10.05;6.50;;;;;;;7.89;90.02;102512.41;5016400;28;20183;-71
2021/12/14 01:57:07;;;;;;;8.02;6.03;;;;;;;7.92;90.20;102501.31;5030437;28;20083;-71
2021/12/14 01:59:36;;;;;;;8.13;5.80;;;;;;;7.88;89.58;102499.97;5014100;28;20038;-71
2021/12/14 02:02:24;;;;;;;8.60;5.90;;;;;;;7.90;90.33;102486.31;5012045;28;20153;-71
2021/12/14 02:04:52;;;;;;;8.05;5.80;;;;;;;7.86;89.66;102491.19;5013994;28;20037;-71
2021/12/14 02:07:19;;;;;;;7.38;5.57;;;;;;;7.82;89.41;102479.06;5019059;28;20464;-71
2021/12/14 02:09:49;;;;;;;7.75;5.70;;;;;;;7.81;89.53;102477.38;5033667;28;20022;-71
2021/12/14 02:12:18;;;;;;;8.80;5.57;;;;;;;7.79;90.17;102463.25;5030087;28;20454;-71
2021/12/14 02:14:45;;;;;;;6.30;5.13;;;;;;;7.76;89.56;102475.19;5013387;28;20131;-71
2021/12/14 02:17:14;;;;;;;8.70;4.82;;;;;;;7.78;90.04;102478.56;5013980;28;20038;-71
2021/12/14 02:19:41;;;;;;;8.20;5.28;;;;;;;7.80;89.09;102475.69;4996034;28;20057;-71
2021/12/14 02:22:08;;;;;;;9.32;5.55;;;;;;;7.78;89.13;102481.25;4996881;28;20026;-71
2021/12/14 02:24:35;;;;;;;8.45;5.15;;;;;;;7.77;88.86;102492.19;5033408;28;20033;-71
2021/12/14 02:27:00;;;;;;;6.78;5.10;;;;;;;7.75;89.20;102473.50;5033784;28;20034;-71
2021/12/14 02:29:37;;;;;;;7.05;5.22;;;;;;;7.79;89.24;102480.25;5033218;28;20234;-71
2021/12/14 02:32:25;;;;;;;7.15;5.25;;;;;;;7.82;89.08;102484.47;5033413;28;20033;-71
2021/12/14 02:37:47;;;;;;;6.40;4.90;;;;;;;7.76;89.13;102485.09;5013449;28;20033;-71
2021/12/14 02:40:20;;;;;;;6.50;5.05;;;;;;;7.75;88.72;102495.06;5012304;28;20069;-71
2021/12/14 02:42:50;;;;;;;6.63;5.07;;;;;;;7.72;89.42;102490.00;4996013;28;20026;-71
2021/12/14 02:45:19;;;;;;;7.45;5.10;;;;;;;7.76;89.16;102506.66;4995476;28;20488;-71
2021/12/14 02:47:44;;;;;;;7.38;5.45;;;;;;;7.76;88.15;102498.56;5013665;28;20037;-71
2021/12/14 02:50:11;;;;;;;7.18;5.05;;;;;;;7.70;88.71;102491.16;5013131;28;20033;-71
2021/12/14 02:52:37;;;;;;;6.45;5.00;;;;;;;7.74;88.42;102497.91;5017163;28;20068;-71
2021/12/14 02:55:10;;;;;;;6.18;5.15;;;;;;;7.73;88.48;102496.22;5033089;28;20025;-71
2021/12/14 02:57:38;;;;;;;7.18;5.43;;;;;;;7.72;88.17;102486.47;5032513;28;20542;-71
2021/12/14 03:00:15;;;;;;;8.50;5.50;;;;;;;7.73;88.78;102475.53;5032999;28;20370;-71
2021/12/14 03:02:42;;;;;;;10.68;5.75;;;;;;;7.70;89.00;102465.06;5025492;28;20042;-71
2021/12/14 03:05:17;;;;;;;9.55;6.10;;;;;;;7.69;89.45;102474.16;5013103;28;20061;-71
2021/12/14 03:07:50;;;;;;;7.93;5.25;;;;;;;7.67;88.11;102470.81;5013330;28;20026;-73
2021/12/14 03:10:32;;;;;;;9.40;5.68;;;;;;;7.69;88.18;102467.94;4995621;28;20033;-75
2021/12/14 03:13:02;;;;;;;6.97;5.38;;;;;;;7.66;88.82;102466.41;5001673;28;20029;-72
2021/12/14 03:15:52;;;;;;;7.03;5.68;;;;;;;7.71;89.61;102460.53;5032778;28;20025;-72
2021/12/14 03:18:30;;;;;;;7.50;5.80;;;;;;;7.66;88.75;102452.94;5032420;28;20469;-72
2021/12/14 03:21:04;;;;;;;14.00;6.40;;;;;;;7.64;88.74;102444.19;5032260;28;20032;-74
2021/12/14 03:23:31;;;;;;;7.32;5.93;;;;;;;7.63;89.07;102440.63;5021900;28;20370;-72
2021/12/14 03:26:02;;;;;;;7.18;6.10;;;;;;;7.64;88.75;102444.19;5012815;28;20115;-71
2021/12/14 03:28:30;;;;;;;7.93;6.15;;;;;;;7.65;89.13;102445.03;5012949;28;20053;-72
2021/12/14 03:30:58;;;;;;;8.93;6.20;;;;;;;7.66;88.95;102452.09;5012332;28;20030;-71
2021/12/14 03:33:29;;;;;;;8.70;6.65;;;;;;;7.63;88.74;102437.09;5012922;28;20080;-71
2021/12/14 03:36:03;;;;;;;10.18;7.25;;;;;;;7.59;89.05;102450.06;5012560;28;20029;-71
2021/12/14 03:39:11;;;;;;;8.93;6.93;;;;;;;7.65;89.26;102445.84;5013071;28;20049;-71
2021/12/14 03:41:42;;;;;;;9.57;7.30;;;;;;;7.57;88.97;102435.91;4913777;29;20429;-71
2021/12/14 03:44:14;;;;;;;10.70;7.90;;;;;;;7.58;89.18;102434.91;5015906;28;20052;-71
2021/12/14 03:46:52;;;;;;;10.32;8.00;;;;;;;7.56;88.67;102441.47;5032089;28;20287;-72
2021/12/14 03:49:21;;;;;;;11.82;8.43;;;;;;;7.55;89.12;102445.16;5014619;28;20060;-71
2021/12/14 03:51:46;;;;;;;10.13;8.30;;;;;;;7.52;88.83;102454.44;5032193;28;20030;-71
2021/12/14 03:54:16;;;;;;;12.55;8.43;;;;;;;7.51;89.27;102463.50;5016527;28;20527;-71
2021/12/14 03:56:41;;;;;;;11.77;8.98;;;;;;;7.53;90.03;102484.91;4994744;28;20029;-71
2021/12/14 03:59:07;;;;;;;10.75;9.07;;;;;;;7.54;89.63;102495.50;4996643;28;20033;-71
2021/12/14 04:01:36;;;;;;;11.38;9.07;;;;;;;7.50;90.24;102488.75;5014237;28;20053;-71
2021/12/14 04:04:15;;;;;;;12.68;9.40;;;;;;;7.53;89.77;102498.38;5029756;28;20483;-71
2021/12/14 04:06:41;;;;;;;14.75;9.70;;;;;;;7.50;89.34;102493.31;5035701;28;20416;-72
2021/12/14 04:09:11;;;;;;;13.73;9.98;;;;;;;7.52;89.70;102502.94;5018380;28;20030;-71
2021/12/14 04:11:36;;;;;;;13.63;10.20;;;;;;;7.50;89.50;102502.22;5035825;28;20044;-71
2021/12/14 04:14:03;;;;;;;14.40;10.23;;;;;;;7.48;89.28;102500.72;5033085;28;20033;-71
2021/12/14 04:16:28;;;;;;;12.75;9.23;;;;;;;7.48;90.38;102492.66;5035410;28;20049;-71
2021/12/14 04:18:56;;;;;;;12.93;10.45;;;;;;;7.48;89.78;102488.09;5035733;28;20025;-71
2021/12/14 04:21:22;;;;;;;13.93;10.05;;;;;;;7.51;90.11;102486.94;5035945;28;20044;-71
2021/12/14 04:23:50;;;;;;;15.20;10.30;;;;;;;7.48;90.46;102480.00;5021747;28;20462;-71
2021/12/14 04:26:17;;;;;;;12.32;10.00;;;;;;;7.52;89.80;102491.28;4998472;28;20461;-71
2021/12/14 04:28:47;;;;;;;17.33;10.93;;;;;;;7.50;90.16;102494.16;5015537;28;20148;-71
2021/12/14 04:31:13;;;;;;;15.20;10.57;;;;;;;7.55;89.84;102504.41;5016022;28;20105;-71
2021/12/14 04:33:42;;;;;;;16.25;10.75;;;;;;;7.52;89.95;102500.22;5027819;28;20112;-71
2021/12/14 04:36:11;;;;;;;15.40;10.38;;;;;;;7.52;90.38;102485.91;5035663;28;20485;-71
2021/12/14 04:38:47;;;;;;;15.15;10.55;;;;;;;7.49;89.79;102481.69;5017834;28;20097;-71
2021/12/14 04:52:13;;;;;;;17.55;11.80;;;;;;;7.50;89.87;102467.22;5015734;28;20495;-71
2021/12/14 04:54:45;;;;;;;18.35;12.02;;;;;;;7.50;90.04;102460.97;5015516;28;20033;-71
2021/12/14 04:57:43;;;;;;;15.48;11.50;;;;;;;7.53;90.37;102466.03;5035266;28;20045;-71
2021/12/14 05:00:17;;;;;;;16.70;11.80;;;;;;;7.51;90.24;102471.59;5035300;28;20069;-71
2021/12/14 05:02:43;;;;;;;17.17;11.93;;;;;;;7.50;90.05;102461.81;5032866;28;20045;-71
2021/12/14 05:05:15;;;;;;;17.42;12.13;;;;;;;7.50;89.71;102475.28;5031103;28;20030;-71
2021/12/14 05:09:19;;;;;;;20.52;12.70;;;;;;;7.46;90.58;102471.25;5015288;28;20025;-71
2021/12/14 05:10:36;;;;;;;18.67;12.57;;;;;;;7.38;89.93;102461.31;5014220;28;20074;-71
2021/12/14 05:13:02;;;;;;;15.90;12.30;;;;;;;7.42;89.78;102465.34;5014993;28;20073;-71
2021/12/14 05:15:27;;;;;;;17.45;12.13;;;;;;;7.43;90.18;102458.94;5020422;28;20026;-71
2021/12/14 05:17:52;;;;;;;16.30;12.40;;;;;;;7.44;89.56;102457.97;5034275;28;20443;-72
2021/12/14 05:20:18;;;;;;;18.10;12.63;;;;;;;7.39;90.36;102456.75;5034863;28;20112;-71
2021/12/14 05:22:46;;;;;;;17.25;12.98;;;;;;;7.41;89.81;102452.91;5034886;28;20384;-71
2021/12/14 05:25:25;;;;;;;17.25;13.05;;;;;;;7.41;90.53;102458.28;5013395;28;20117;-71
2021/12/14 05:27:57;;;;;;;18.90;12.82;;;;;;;7.36;90.35;102454.41;4997224;28;20041;-71
2021/12/14 05:30:28;;;;;;;17.02;12.50;;;;;;;7.38;90.76;102455.94;5014907;28;20092;-71
2021/12/14 05:33:07;;;;;;;17.75;13.32;;;;;;;7.41;90.55;102460.13;5014655;28;20351;-71
2021/12/14 05:35:33;;;;;;;17.55;13.00;;;;;;;7.42;90.69;102456.44;4998685;28;20045;-71
2021/12/14 05:38:00;;;;;;;17.63;13.00;;;;;;;7.42;90.46;102454.56;5033961;28;20407;-71
2021/12/14 05:43:12;;;;;;;19.40;13.50;;;;;;;7.42;90.72;102456.44;5034195;28;20029;-71
2021/12/14 05:45:41;;;;;;;19.92;13.45;;;;;;;7.42;90.19;102457.25;5010025;28;20485;-71
2021/12/14 05:48:09;;;;;;;18.48;13.40;;;;;;;7.43;90.65;102469.72;5014264;28;20112;-71
2021/12/14 05:50:42;;;;;;;19.45;13.75;;;;;;;7.41;90.74;102465.50;5014271;28;20668;-71
2021/12/14 05:53:09;;;;;;;19.35;13.75;;;;;;;7.40;89.88;102466.53;5014239;28;20076;-71
2021/12/14 05:55:39;;;;;;;21.08;14.80;;;;;;;7.39;89.51;102468.38;5019667;28;20060;-71
2021/12/14 05:58:11;;;;;;;21.48;14.35;;;;;;;7.38;90.79;102463.13;5033960;28;20068;-71
2021/12/14 06:00:40;;;;;;;21.13;15.32;;;;;;;7.39;90.56;102467.53;5032005;28;20036;-71
2021/12/14 06:03:05;;;;;;;21.73;15.57;;;;;;;7.41;89.61;102476.28;5033926;28;20038;-71
2021/12/14 06:05:31;;;;;;;22.20;15.32;;;;;;;7.39;89.92;102486.38;5028910;28;20037;-71
2021/12/14 06:07:57;;;;;;;21.75;15.10;;;;;;;7.35;90.49;102476.94;5013915;28;20389;-71
2021/12/14 06:10:25;;;;;;;23.50;16.13;;;;;;;7.36;90.03;102478.63;5014111;28;20037;-71
2021/12/14 06:12:50;;;;;;;21.13;15.38;;;;;;;7.40;90.67;102480.00;5014232;28;20040;-71
2021/12/14 06:15:25;;;;;;;22.10;15.75;;;;;;;7.37;89.78;102491.94;5016028;28;20120;-71
2021/12/14 06:17:50;;;;;;;21.83;15.60;;;;;;;7.35;90.77;102487.72;5033843;28;20091;-71
2021/12/14 06:20:25;;;;;;;21.58;15.68;;;;;;;7.37;90.36;102494.63;5033735;28;20029;-71
2021/12/14 06:22:52;;;;;;;23.42;16.08;;;;;;;7.34;90.18;102488.72;5031997;28;20034;-71
2021/12/14 06:25:22;;;;;;;23.35;16.60;;;;;;;7.31;90.35;102503.34;5013766;28;20034;-71
2021/12/14 06:27:49;;;;;;;25.67;17.45;;;;;;;7.33;90.55;102500.50;4996208;28;20030;-71
2021/12/14 06:30:21;;;;;;;22.58;16.77;;;;;;;7.32;90.85;102496.94;5013781;28;20100;-71
2021/12/14 06:33:09;;;;;;;24.92;16.92;;;;;;;7.37;90.42;102493.78;5015735;28;20083;-71
2021/12/14 06:35:38;;;;;;;25.38;16.67;;;;;;;7.32;90.51;102491.56;5033638;28;20040;-71
2021/12/14 06:40:49;;;;;;;27.17;17.35;;;;;;;7.34;90.76;102494.94;5013526;28;20053;-71
2021/12/14 06:43:26;;;;;;;25.63;16.40;;;;;;;7.35;90.42;102503.88;4995957;28;20061;-72
2021/12/14 06:45:59;;;;;;;24.13;17.92;;;;;;;7.32;90.10;102504.19;5012957;28;20121;-71
2021/12/14 06:48:28;;;;;;;25.95;17.73;;;;;;;7.33;90.80;102512.09;5010804;28;20029;-71
2021/12/14 06:51:22;;;;;;;26.67;18.20;;;;;;;7.33;90.68;102505.88;5032856;28;20040;-72
2021/12/14 06:53:52;;;;;;;25.85;18.50;;;;;;;7.30;90.96;102506.22;5033210;28;20037;-71
2021/12/14 06:56:22;;;;;;;26.20;18.35;;;;;;;7.30;90.48;102511.59;5033058;28;20034;-71
2021/12/14 06:58:55;;;;;;;27.77;19.58;;;;;;;7.29;90.99;102526.91;4997051;28;20041;-71
2021/12/14 07:01:25;;;;;;;25.23;17.88;;;;;;;7.31;90.56;102521.34;5010997;28;20036;-72
2021/12/14 07:04:05;;;;;;;26.00;18.35;;;;;;;7.30;90.59;102516.97;5013180;28;20472;-74
2021/12/14 07:06:30;;;;;;;27.55;18.17;;;;;;;7.28;91.10;102520.69;5012883;28;20061;-74
2021/12/14 07:09:03;;;;;;;28.47;19.27;;;;;;;7.30;90.97;102530.44;5031471;28;20037;-73
2021/12/14 07:11:29;;;;;;;29.05;19.63;;;;;;;7.30;90.79;102525.06;5032779;28;20268;-73
2021/12/14 07:13:57;;;;;;;31.05;19.25;;;;;;;7.27;91.09;102527.06;5032613;28;20435;-73
2021/12/14 07:16:37;;;;;;;28.33;19.30;;;;;;;7.31;90.73;102529.41;5032786;28;20056;-73
2021/12/14 07:19:05;;;;;;;28.98;18.75;;;;;;;7.31;91.21;102534.81;5012793;28;20541;-73
2021/12/14 07:22:33;;;;;;;29.17;19.17;;;;;;;7.36;91.22;102545.97;4995336;28;20042;-72
2021/12/14 07:25:06;;;;;;;28.20;19.60;;;;;;;7.28;91.03;102547.59;4914309;29;20625;-74
2021/12/14 07:27:35;;;;;;;32.30;19.45;;;;;;;7.28;91.07;102550.28;5015981;28;20529;-72
2021/12/14 07:30:25;;;;;;;30.25;19.83;;;;;;;7.38;90.61;102558.28;4994997;28;20496;-72
2021/12/14 07:33:10;;;;;;;27.73;19.10;;;;;;;7.34;91.24;102564.97;4995098;28;20128;-73
2021/12/14 07:35:47;;;;;;;28.13;19.75;;;;;;;7.32;90.64;102558.06;4995467;28;20056;-72
2021/12/14 07:38:15;;;;;;;28.70;19.92;;;;;;;7.36;91.06;102562.13;5012816;28;20030;-73
2021/12/14 07:40:45;;;;;;;31.00;20.63;;;;;;;7.33;90.97;102560.59;5012982;28;20038;-72
2021/12/14 07:43:13;;;;;;;27.50;20.00;;;;;;;7.32;90.68;102560.75;4994629;28;20480;-72
2021/12/14 07:45:39;;;;;;;27.13;19.98;;;;;;;7.35;90.80;102563.97;5012474;28;20081;-73
2021/12/14 07:48:05;;;;;;;30.13;20.17;;;;;;;7.35;90.92;102573.88;5000967;28;20033;-73
2021/12/14 07:50:53;;;;;;;31.80;21.10;;;;;;;7.36;90.91;102570.19;5032418;28;20040;-73
2021/12/14 07:53:47;;;;;;;30.20;21.30;;;;;;;7.39;90.53;102569.88;5032430;28;20132;-72
2021/12/14 07:56:32;;;;;;;33.25;21.33;;;;;;;7.39;90.15;102580.66;5008716;28;20124;-73
2021/12/14 07:58:58;;;;;;;29.23;20.15;;;;;;;7.36;90.95;102580.97;4998753;28;20042;-72
2021/12/14 08:01:25;;;;;;;31.08;21.33;;;;;;;7.35;90.93;102595.44;4992714;28;20029;-72
2021/12/14 08:04:04;;;;;;;27.02;20.15;;;;;;;7.34;90.32;102597.28;4994929;28;20420;-72
2021/12/14 08:06:48;;;;;;;31.73;21.48;;;;;;;7.34;90.89;102593.75;5012670;28;20033;-73
2021/12/14 08:09:19;;;;;;;30.92;20.75;;;;;;;7.33;91.03;102597.44;5029655;28;20049;-73
2021/12/14 08:11:47;;;;;;;30.25;20.88;;;;;;;7.35;90.82;102590.03;5014484;28;20030;-73
2021/12/14 08:14:25;;;;;;;29.77;21.23;;;;;;;7.37;90.82;102599.66;5014218;28;20048;-72
2021/12/14 08:17:01;;;;;;;29.77;20.70;;;;;;;7.38;90.88;102589.72;5031423;28;20025;-73
2021/12/14 08:19:32;;;;;;;31.10;21.65;;;;;;;7.37;90.46;102593.44;4994767;28;20120;-72
2021/12/14 08:21:59;;;;;;;;;;;;;;;7.45;90.58;102598.84;4994966;28;20117;-73
2021/12/14 08:24:25;;;;;;;31.88;21.45;;;;;;;7.38;90.93;102589.72;4994702;28;19921;-72
2021/12/14 08:26:55;;;;;;;33.33;21.85;;;;;;;7.35;90.73;102595.44;5012264;28;20033;-73
2021/12/14 08:29:27;;;;;;;31.40;21.73;;;;;;;7.31;90.69;102596.75;5012294;28;20033;-73
2021/12/14 08:31:57;;;;;;;;;;;;;;;7.47;90.59;102596.00;5012972;28;20022;-73
2021/12/14 08:34:30;;;;;;;33.63;21.52;;;;;;;7.37;91.06;102594.28;5012497;28;19956;-73
2021/12/14 08:37:09;;;;;;;33.30;22.67;;;;;;;7.39;90.30;102596.81;4994660;28;20484;-73
2021/12/14 08:39:43;;;;;;;31.75;22.13;;;;;;;7.40;90.90;102601.19;5011964;28;20034;-73
2021/12/14 08:42:23;;;;;;;33.20;21.95;;;;;;;7.38;91.32;102600.50;5012001;28;20473;-73
2021/12/14 08:44:56;;;;;;;34.92;22.65;;;;;;;7.41;90.38;102601.03;4994348;28;20119;-72
2021/12/14 08:47:41;;;;;;;31.42;21.33;;;;;;;7.43;90.99;102604.41;5032542;28;20069;-73
2021/12/14 08:50:11;;;;;;;32.15;21.92;;;;;;;7.44;90.51;102606.09;5035488;28;20042;-72
2021/12/14 08:52:37;;;;;;;31.63;21.75;;;;;;;7.47;90.71;102598.69;5017707;28;20032;-73
2021/12/14 08:55:09;;;;;;;31.23;21.27;;;;;;;7.46;90.88;102597.84;5035106;28;20029;-72
2021/12/14 08:57:35;;;;;;;34.60;22.08;;;;;;;7.50;91.04;102609.97;5016156;28;20524;-73
2021/12/14 09:00:12;;;;;;;33.67;22.10;;;;;;;7.49;91.59;102608.31;4997565;28;20113;-72
2021/12/14 09:02:39;;;;;;;32.53;22.27;;;;;;;7.51;90.21;102610.84;5013213;28;20030;-73
2021/12/14 09:05:21;;;;;;;32.78;22.58;;;;;;;7.52;90.57;102618.75;5015338;28;20069;-73
2021/12/14 09:07:47;;;;;;;31.42;22.30;;;;;;;7.52;90.57;102613.38;5015080;28;20049;-73
2021/12/14 09:10:18;;;;;;;33.50;22.98;;;;;;;7.53;90.48;102615.03;5013713;28;20030;-72
2021/12/14 09:12:46;;;;;;;34.92;23.05;;;;;;;7.51;91.15;102614.38;5015478;28;20439;-73
2021/12/14 09:15:29;;;;;;;34.20;22.92;;;;;;;7.55;91.28;102617.56;5014938;28;20026;-73
2021/12/14 09:17:55;;;;;;;34.10;22.70;;;;;;;7.57;90.85;102610.19;5014926;28;20033;-72
2021/12/14 09:20:25;;;;;;;36.20;22.85;;;;;;;7.60;91.20;102621.47;5013814;28;20061;-72
2021/12/14 09:22:56;;;;;;;34.92;23.13;;;;;;;7.62;90.72;102619.47;5015057;28;20041;-73
2021/12/14 09:25:28;;;;;;;34.20;22.63;;;;;;;7.67;90.61;102621.69;4997394;28;20091;-72
2021/12/14 09:27:54;;;;;;;33.78;22.88;;;;;;;7.68;90.50;102626.06;4997314;28;20529;-73
2021/12/14 09:30:22;;;;;;;33.80;23.60;;;;;;;7.65;90.71;102625.53;5014682;28;20045;-73
2021/12/14 09:32:48;;;;;;;36.08;23.77;;;;;;;7.70;90.47;102631.28;4997675;28;20033;-73
2021/12/14 09:35:19;;;;;;;34.90;24.00;;;;;;;7.70;90.30;102623.19;5014315;28;20068;-73
2021/12/14 09:37:47;;;;;;;33.10;23.48;;;;;;;7.72;90.68;102623.91;4997040;28;20022;-73
2021/12/14 09:40:19;;;;;;;35.72;23.08;;;;;;;7.72;91.07;102624.72;5014508;28;20034;-72
2021/12/14 09:42:45;;;;;;;34.38;23.20;;;;;;;7.77;90.96;102626.94;4998834;28;20087;-73
2021/12/14 09:45:17;;;;;;;35.40;24.20;;;;;;;7.74;90.30;102611.09;5015941;28;20112;-72
2021/12/14 09:47:43;;;;;;;34.80;23.38;;;;;;;7.77;90.86;102624.25;5034327;28;20032;-73
2021/12/14 09:50:12;;;;;;;38.08;24.65;;;;;;;7.76;90.67;102615.31;5034320;28;20037;-76
2021/12/14 09:52:41;;;;;;;36.25;23.00;;;;;;;7.78;90.96;102615.16;5030575;28;20026;-74
2021/12/14 09:55:14;;;;;;;27.70;17.38;;;;;;;7.98;91.75;102605.78;5023071;28;20029;-71
2021/12/14 09:57:50;;;;;;;31.17;21.02;;;;;;;8.18;90.89;102608.16;5033385;28;20499;-71
2021/12/14 10:00:43;;;;;;;29.20;18.98;;;;;;;8.42;90.21;102601.13;5033952;28;20105;-71
2021/12/14 10:03:10;;;;;;;33.25;23.10;;;;;;;8.54;89.13;102597.13;5014064;28;20084;-71
2021/12/14 10:05:46;;;;;;;34.85;23.70;;;;;;;8.61;87.75;102606.22;5014165;28;20378;-71
2021/12/14 10:08:18;;;;;;;32.88;22.52;;;;;;;8.72;88.37;102606.91;5013921;28;20026;-72
2021/12/14 10:11:00;;;;;;;29.70;22.27;;;;;;;8.69;87.36;102611.63;4996445;28;20022;-70
2021/12/14 10:13:27;;;;;;;34.72;23.85;;;;;;;8.55;88.05;102601.50;4996451;28;20049;-69
2021/12/14 10:15:55;;;;;;;33.80;22.85;;;;;;;8.42;87.49;102604.66;5023780;28;20041;-72
2021/12/14 10:18:56;;;;;;;35.42;23.08;;;;;;;8.39;88.75;102614.97;5032047;28;20087;-70
2021/12/14 10:21:27;;;;;;;36.83;24.40;;;;;;;8.26;89.01;102616.28;4999559;28;20053;-71
2021/12/14 10:23:53;;;;;;;34.60;22.52;;;;;;;8.22;89.11;102614.94;5013566;28;20090;-71
2021/12/14 10:26:21;;;;;;;37.95;24.85;;;;;;;8.19;89.62;102611.72;5013628;28;20444;-68
2021/12/14 10:28:53;;;;;;;37.13;24.10;;;;;;;8.18;89.50;102618.97;5033341;28;20041;-69
2021/12/14 10:31:27;;;;;;;37.35;23.50;;;;;;;8.16;89.15;102610.19;5033270;28;20095;-71
2021/12/14 10:33:54;;;;;;;37.70;24.52;;;;;;;8.18;89.28;102613.56;5033543;28;20037;-72
2021/12/14 10:36:36;;;;;;;35.15;23.35;;;;;;;8.14;89.67;102618.47;5032830;28;20029;-72
2021/12/14 10:44:31;;;;;;;38.58;25.48;;;;;;;8.12;89.69;102623.19;5033070;28;20392;-71
2021/12/14 10:46:56;;;;;;;41.25;25.73;;;;;;;8.16;89.56;102632.59;5028152;28;20046;-70
2021/12/14 10:49:24;;;;;;;42.72;24.90;;;;;;;8.10;89.39;102627.03;5012894;28;20045;-72
2021/12/14 10:51:55;;;;;;;38.65;24.42;;;;;;;8.11;89.22;102621.50;4995831;28;20034;-69
2021/12/14 10:54:20;;;;;;;39.10;25.85;;;;;;;8.13;90.51;102622.16;5013181;28;20083;-69
2021/12/14 10:56:57;;;;;;;41.75;25.15;;;;;;;8.19;90.79;102614.44;4995944;28;20029;-70
2021/12/14 10:59:27;;;;;;;40.63;25.13;;;;;;;8.18;90.38;102618.97;5012824;28;20029;-70
2021/12/14 11:01:53;;;;;;;39.65;25.45;;;;;;;8.16;90.36;102616.44;5010804;28;20489;-70
2021/12/14 11:04:39;;;;;;;46.45;26.73;;;;;;;8.21;89.89;102612.41;5012890;28;20038;-72
2021/12/14 11:07:39;;;;;;;37.55;25.02;;;;;;;8.24;89.79;102607.50;5017867;28;20040;-72
2021/12/14 11:10:36;;;;;;;41.92;25.30;;;;;;;8.27;89.83;102607.19;5008580;28;20069;-71
2021/12/14 11:13:09;;;;;;;40.33;26.33;;;;;;;8.27;90.24;102607.19;5031383;28;20033;-70
2021/12/14 11:15:43;;;;;;;41.45;25.70;;;;;;;8.28;89.69;102608.88;5032484;28;20033;-72
2021/12/14 11:18:15;;;;;;;40.08;25.40;;;;;;;8.27;89.82;102598.25;5019137;28;20034;-76
2021/12/14 11:20:40;;;;;;;39.05;25.40;;;;;;;8.32;90.58;102595.91;5012675;28;20079;-69
2021/12/14 11:23:17;;;;;;;39.57;26.33;;;;;;;8.36;90.02;102593.72;5013040;28;20113;-69
2021/12/14 11:26:07;;;;;;;40.65;25.67;;;;;;;8.42;89.57;102591.16;5030735;28;20292;-71
2021/12/14 11:28:41;;;;;;;44.67;26.77;;;;;;;8.45;89.22;102598.13;5032693;28;20021;-71
2021/12/14 11:31:12;;;;;;;37.40;25.60;;;;;;;8.45;90.06;102588.16;5032360;28;20026;-72
2021/12/14 11:33:42;;;;;;;41.25;26.02;;;;;;;8.50;89.68;102590.41;5031133;28;20075;-70
2021/12/14 11:36:13;;;;;;;41.97;26.23;;;;;;;8.50;89.51;102582.31;4991969;28;20053;-70
2021/12/14 11:38:48;;;;;;;42.17;27.20;;;;;;;8.55;89.88;102584.50;5032127;28;20497;-72
2021/12/14 11:41:25;;;;;;;40.40;25.98;;;;;;;8.55;89.21;102585.31;5020848;28;20389;-73
2021/12/14 11:43:55;;;;;;;45.38;26.30;;;;;;;8.54;89.92;102572.84;5019075;28;20136;-73
2021/12/14 11:46:23;;;;;;;43.30;26.67;;;;;;;8.59;89.18;102575.88;5020269;28;20401;-71
2021/12/14 11:48:48;;;;;;;42.75;27.17;;;;;;;8.63;89.70;102577.22;5012236;28;20033;-73
2021/12/14 11:51:14;;;;;;;44.97;27.48;;;;;;;8.68;89.58;102580.25;5030500;28;20053;-73
2021/12/14 11:53:49;;;;;;;42.60;27.02;;;;;;;8.69;89.59;102573.81;5032355;28;20057;-73
2021/12/14 11:56:18;;;;;;;43.47;27.08;;;;;;;8.66;89.34;102579.56;5014393;28;20419;-73
2021/12/14 11:58:51;;;;;;;43.28;27.50;;;;;;;8.66;89.81;102582.25;5032338;28;20055;-72
2021/12/14 12:01:25;;;;;;;40.10;26.13;;;;;;;8.68;89.88;102588.34;5028948;28;20473;-74
2021/12/14 12:03:56;;;;;;;43.42;26.92;;;;;;;8.67;89.26;102586.66;5031180;28;20099;-73
2021/12/14 12:09:28;;;;;;;43.25;27.08;;;;;;;8.69;89.61;102573.81;5012237;28;20050;-76
2021/12/14 12:12:00;;;;;;;43.58;28.20;;;;;;;8.73;89.31;102584.31;5017510;28;20033;-74
2021/12/14 12:14:31;;;;;;;44.67;29.60;;;;;;;8.73;89.96;102585.16;5012228;28;20038;-72
2021/12/14 12:17:07;;;;;;;44.60;28.00;;;;;;;8.74;89.71;102583.28;5022212;28;20056;-71